Time;durP1;ratioP1;P1;durP2;ratioP2;P2;SDS_P1;SDS_P2;PMS_P1;PMS_P2;Temp;Humidity;BMP_temperature;BMP_pressure;BME280_temperature;BME280_humidity;BME280_pressure;Samples;Min_cycle;Max_cycle;Signal;HPM_P1;HPM_P2
2023/04/08 00:01:56;;;;;;;11.30;7.17;;;;;;;;;;5034935;28;20462;-83
2023/04/08 00:04:23;;;;;;;11.93;7.30;;;;;;;;;;5035253;28;20415;-83
2023/04/08 00:06:49;;;;;;;10.13;5.77;;;;;;;;;;5035022;28;20804;-83
2023/04/08 00:09:16;;;;;;;12.87;6.77;;;;;;;;;;5052621;28;20773;-84
2023/04/08 00:11:42;;;;;;;12.73;6.57;;;;;;;;;;5035074;28;20430;-83
2023/04/08 00:14:08;;;;;;;13.70;7.83;;;;;;;;;;5034061;28;20430;-82
2023/04/08 00:16:34;;;;;;;12.07;6.87;;;;;;;;;;5034082;28;20434;-82
2023/04/08 00:19:00;;;;;;;10.10;6.67;;;;;;;;;;5052699;28;20407;-85
2023/04/08 00:21:30;;;;;;;11.50;7.07;;;;;;;;;;5051803;28;20530;-82
2023/04/08 00:23:58;;;;;;;14.17;6.70;;;;;;;;;;5034764;28;20507;-86
2023/04/08 00:26:25;;;;;;;11.20;6.57;;;;;;;;;;5034749;28;20463;-85
2023/04/08 00:28:57;;;;;;;22.07;7.77;;;;;;;;;;5052787;28;20450;-82
2023/04/08 00:31:23;;;;;;;10.93;6.93;;;;;;;;;;5034763;28;20891;-81
2023/04/08 00:33:56;;;;;;;12.90;6.90;;;;;;;;;;5034510;28;20414;-85
2023/04/08 00:36:22;;;;;;;13.67;6.57;;;;;;;;;;4993646;28;20440;-84
2023/04/08 00:39:15;;;;;;;14.40;7.57;;;;;;;;;;5052866;28;20812;-86
2023/04/08 00:41:42;;;;;;;11.30;6.50;;;;;;;;;;5034813;28;21010;-85
2023/04/08 00:44:08;;;;;;;16.40;8.00;;;;;;;;;;5034777;28;20928;-83
2023/04/08 00:46:40;;;;;;;15.37;7.70;;;;;;;;;;5052253;28;20432;-84
2023/04/08 00:49:09;;;;;;;12.93;7.07;;;;;;;;;;5034811;28;21006;-85
2023/04/08 00:51:35;;;;;;;14.60;8.73;;;;;;;;;;5034727;28;20843;-83
2023/04/08 00:54:03;;;;;;;13.73;9.23;;;;;;;;;;5034689;28;20437;-86
2023/04/08 00:56:31;;;;;;;19.03;7.73;;;;;;;;;;5034609;28;20422;-85
2023/04/08 00:58:59;;;;;;;11.53;7.13;;;;;;;;;;5052585;28;20413;-86
2023/04/08 01:01:37;;;;;;;9.57;6.53;;;;;;;;;;5050323;28;20474;-83
2023/04/08 01:04:15;;;;;;;17.90;7.20;;;;;;;;;;5034540;28;20429;-87
2023/04/08 01:06:48;;;;;;;13.07;6.67;;;;;;;;;;5034307;28;21060;-83
2023/04/08 01:09:19;;;;;;;12.10;5.97;;;;;;;;;;5035475;28;20826;-83
2023/04/08 01:12:09;;;;;;;11.97;6.07;;;;;;;;;;5054027;28;20510;-84
2023/04/08 01:14:38;;;;;;;10.40;5.30;;;;;;;;;;5056043;28;20420;-82
2023/04/08 01:17:05;;;;;;;8.70;5.13;;;;;;;;;;5037828;28;20506;-82
2023/04/08 01:19:51;;;;;;;10.23;5.90;;;;;;;;;;5021701;28;20468;-84
2023/04/08 01:22:30;;;;;;;10.43;6.17;;;;;;;;;;5056072;28;20414;-85
2023/04/08 01:24:59;;;;;;;9.23;5.27;;;;;;;;;;5038586;28;20841;-82
2023/04/08 01:27:33;;;;;;;7.47;5.17;;;;;;;;;;5038342;28;20495;-82
2023/04/08 01:30:00;;;;;;;8.37;5.73;;;;;;;;;;5036305;28;20920;-81
2023/04/08 01:32:27;;;;;;;10.27;5.53;;;;;;;;;;5037647;28;20423;-82
2023/04/08 01:34:54;;;;;;;7.80;4.53;;;;;;;;;;5036963;28;20521;-82
2023/04/08 01:37:25;;;;;;;8.70;4.73;;;;;;;;;;5055123;28;20420;-83
2023/04/08 01:39:51;;;;;;;9.47;5.97;;;;;;;;;;5055275;28;20819;-82
2023/04/08 01:42:19;;;;;;;9.00;4.70;;;;;;;;;;5037761;28;20482;-83
2023/04/08 01:44:47;;;;;;;10.77;5.60;;;;;;;;;;5055627;28;20420;-83
2023/04/08 01:47:18;;;;;;;8.87;5.17;;;;;;;;;;5037428;28;20977;-84
2023/04/08 01:49:44;;;;;;;10.17;4.60;;;;;;;;;;5022020;28;20454;-84
2023/04/08 01:52:14;;;;;;;9.87;4.70;;;;;;;;;;5008583;28;20419;-85
2023/04/08 01:54:41;;;;;;;9.40;5.30;;;;;;;;;;5054653;28;20423;-84
2023/04/08 01:57:08;;;;;;;10.90;5.30;;;;;;;;;;5055119;28;20479;-86
2023/04/08 01:59:56;;;;;;;8.67;5.97;;;;;;;;;;5055205;28;20475;-85
2023/04/08 02:02:25;;;;;;;12.20;6.33;;;;;;;;;;5055058;28;20419;-86
2023/04/08 02:05:05;;;;;;;9.90;6.03;;;;;;;;;;5055240;28;20497;-85
2023/04/08 02:07:31;;;;;;;10.10;5.53;;;;;;;;;;5037262;28;21044;-85
2023/04/08 02:10:17;;;;;;;9.17;5.00;;;;;;;;;;5037727;28;20463;-84
2023/04/08 02:12:47;;;;;;;10.67;5.80;;;;;;;;;;5037752;28;20422;-87
2023/04/08 02:15:14;;;;;;;10.97;6.97;;;;;;;;;;5055298;28;20505;-88
2023/04/08 02:17:49;;;;;;;11.40;6.33;;;;;;;;;;5037949;28;20434;-91
2023/04/08 02:20:53;;;;;;;8.13;5.40;;;;;;;;;;5037899;28;20479;-90
2023/04/08 02:23:42;;;;;;;10.20;5.83;;;;;;;;;;4971958;28;20444;-88
2023/04/08 02:26:18;;;;;;;13.07;5.73;;;;;;;;;;4974932;28;20416;-90
2023/04/08 02:28:45;;;;;;;8.50;5.10;;;;;;;;;;4974807;28;20419;-89
2023/04/08 02:31:37;;;;;;;12.33;5.73;;;;;;;;;;4974728;28;20520;-91
2023/04/08 02:34:48;;;;;;;9.20;6.10;;;;;;;;;;5004031;28;20418;-90
2023/04/08 02:37:40;;;;;;;8.20;4.47;;;;;;;;;;5037676;28;20411;-89
2023/04/08 02:40:30;;;;;;;10.93;5.40;;;;;;;;;;5054211;28;20510;-84
2023/04/08 02:42:56;;;;;;;11.83;6.70;;;;;;;;;;5020287;28;20521;-85
2023/04/08 02:45:25;;;;;;;11.10;6.47;;;;;;;;;;5035776;28;20419;-81
2023/04/08 02:47:52;;;;;;;8.00;5.87;;;;;;;;;;5053951;28;20540;-82
2023/04/08 02:50:18;;;;;;;13.40;6.20;;;;;;;;;;5054424;28;20568;-82
2023/04/08 02:52:44;;;;;;;9.10;5.30;;;;;;;;;;5053463;28;20449;-82
2023/04/08 02:55:10;;;;;;;9.70;5.73;;;;;;;;;;5054265;28;20414;-82
2023/04/08 02:57:37;;;;;;;8.93;5.33;;;;;;;;;;5036431;28;20418;-82
2023/04/08 03:00:04;;;;;;;15.50;6.30;;;;;;;;;;5032004;28;20528;-82
2023/04/08 03:02:30;;;;;;;12.77;6.33;;;;;;;;;;5034079;28;20458;-81
2023/04/08 03:04:56;;;;;;;7.40;5.20;;;;;;;;;;5015626;28;20848;-84
2023/04/08 03:07:22;;;;;;;9.47;6.57;;;;;;;;;;5015087;28;20507;-83
2023/04/08 03:09:48;;;;;;;8.83;5.83;;;;;;;;;;5034198;28;20445;-83
2023/04/08 03:12:13;;;;;;;7.40;5.20;;;;;;;;;;5052214;28;20427;-82
2023/04/08 03:14:39;;;;;;;9.67;6.50;;;;;;;;;;5036246;28;20414;-83
2023/04/08 03:17:05;;;;;;;10.13;7.20;;;;;;;;;;5035798;28;20422;-85
2023/04/08 03:19:31;;;;;;;8.40;5.63;;;;;;;;;;5034221;28;20523;-83
2023/04/08 03:21:57;;;;;;;11.83;6.60;;;;;;;;;;4996969;28;20480;-85
2023/04/08 03:24:23;;;;;;;9.67;5.70;;;;;;;;;;5033961;28;20966;-86
2023/04/08 03:26:52;;;;;;;8.70;6.33;;;;;;;;;;5033959;28;20901;-86
2023/04/08 03:29:18;;;;;;;12.37;6.30;;;;;;;;;;5034129;28;20403;-87
2023/04/08 03:31:44;;;;;;;11.30;5.70;;;;;;;;;;5016015;28;20527;-85
2023/04/08 03:34:12;;;;;;;11.13;6.00;;;;;;;;;;5033441;28;20890;-88
2023/04/08 03:36:38;;;;;;;11.70;7.47;;;;;;;;;;5016195;28;20423;-83
2023/04/08 03:39:04;;;;;;;13.33;7.80;;;;;;;;;;5016008;28;20416;-87
2023/04/08 03:41:30;;;;;;;12.37;7.73;;;;;;;;;;5033939;28;20568;-86
2023/04/08 03:43:57;;;;;;;11.57;7.23;;;;;;;;;;5016196;28;20470;-83
2023/04/08 03:46:23;;;;;;;11.87;7.27;;;;;;;;;;5016020;28;20512;-86
2023/04/08 03:48:55;;;;;;;11.20;7.13;;;;;;;;;;5033878;28;20499;-83
2023/04/08 03:51:24;;;;;;;10.10;7.73;;;;;;;;;;5033631;28;20439;-89
2023/04/08 03:53:50;;;;;;;12.70;7.67;;;;;;;;;;5033868;28;20436;-81
2023/04/08 03:56:16;;;;;;;13.33;7.30;;;;;;;;;;5033725;28;20411;-84
2023/04/08 03:58:48;;;;;;;9.57;6.90;;;;;;;;;;5031634;28;20478;-87
2023/04/08 04:01:25;;;;;;;11.80;8.53;;;;;;;;;;5032638;28;20908;-85
2023/04/08 04:03:51;;;;;;;14.17;9.10;;;;;;;;;;5015988;28;20415;-81
2023/04/08 04:06:17;;;;;;;13.63;8.03;;;;;;;;;;5033610;28;20427;-85
2023/04/08 04:08:43;;;;;;;13.40;6.70;;;;;;;;;;5032970;28;20973;-84
2023/04/08 04:11:26;;;;;;;9.77;6.60;;;;;;;;;;5033519;28;20788;-85
2023/04/08 04:13:56;;;;;;;21.63;9.03;;;;;;;;;;5033384;28;20408;-86
2023/04/08 04:16:21;;;;;;;12.77;8.60;;;;;;;;;;5015413;28;20746;-86
2023/04/08 04:18:51;;;;;;;10.60;7.40;;;;;;;;;;5033141;28;20469;-84
2023/04/08 04:21:17;;;;;;;13.60;8.07;;;;;;;;;;5033700;28;20469;-85
2023/04/08 04:23:46;;;;;;;14.03;8.63;;;;;;;;;;5016390;28;20427;-84
2023/04/08 04:26:16;;;;;;;17.20;9.20;;;;;;;;;;5032587;28;20414;-84
2023/04/08 04:28:42;;;;;;;13.00;8.13;;;;;;;;;;5015395;28;20912;-87
2023/04/08 04:31:08;;;;;;;17.20;9.30;;;;;;;;;;5015261;28;20428;-82
2023/04/08 04:33:34;;;;;;;18.47;9.40;;;;;;;;;;5015404;28;20418;-85
2023/04/08 04:36:01;;;;;;;10.87;6.97;;;;;;;;;;5019655;28;20806;-80
2023/04/08 04:38:27;;;;;;;12.57;8.27;;;;;;;;;;5010201;28;20451;-85
2023/04/08 04:40:53;;;;;;;14.00;9.53;;;;;;;;;;5052918;28;20476;-83
2023/04/08 04:43:22;;;;;;;15.80;8.77;;;;;;;;;;5053065;28;20900;-84
2023/04/08 04:45:48;;;;;;;15.20;9.27;;;;;;;;;;5052898;28;20435;-82
2023/04/08 04:48:19;;;;;;;13.07;8.00;;;;;;;;;;5056906;28;20418;-82
2023/04/08 04:50:54;;;;;;;13.07;7.97;;;;;;;;;;5056802;28;20426;-82
2023/04/08 04:53:22;;;;;;;18.33;9.43;;;;;;;;;;5056791;28;20397;-85
2023/04/08 04:55:51;;;;;;;17.97;10.60;;;;;;;;;;5056117;28;20416;-84
2023/04/08 04:58:18;;;;;;;19.80;9.77;;;;;;;;;;5056696;28;20432;-83
2023/04/08 05:00:45;;;;;;;16.27;8.27;;;;;;;;;;5038292;28;20508;-81
2023/04/08 05:03:11;;;;;;;15.53;8.60;;;;;;;;;;5038751;28;20416;-82
2023/04/08 05:06:08;;;;;;;15.83;9.80;;;;;;;;;;5039295;28;20422;-87
2023/04/08 05:08:34;;;;;;;16.60;9.27;;;;;;;;;;5038873;28;20484;-82
2023/04/08 05:11:01;;;;;;;16.40;9.27;;;;;;;;;;5038516;28;20503;-82
2023/04/08 05:13:27;;;;;;;17.47;9.93;;;;;;;;;;5038571;28;20835;-87
2023/04/08 05:15:53;;;;;;;17.83;11.30;;;;;;;;;;5056023;28;20466;-83
2023/04/08 05:18:19;;;;;;;19.27;10.07;;;;;;;;;;5055212;28;20425;-86
2023/04/08 05:20:55;;;;;;;16.47;8.83;;;;;;;;;;5056180;28;20465;-85
2023/04/08 05:23:24;;;;;;;13.60;9.23;;;;;;;;;;5056219;28;20421;-84
2023/04/08 05:26:10;;;;;;;15.60;10.63;;;;;;;;;;5055479;28;20425;-82
2023/04/08 05:28:36;;;;;;;13.83;8.00;;;;;;;;;;5055696;28;20460;-85
2023/04/08 05:31:02;;;;;;;14.80;10.33;;;;;;;;;;5055750;28;20434;-84
2023/04/08 05:33:31;;;;;;;23.43;10.20;;;;;;;;;;5056132;28;20475;-83
2023/04/08 05:36:00;;;;;;;15.10;9.17;;;;;;;;;;5055986;28;20440;-83
2023/04/08 05:38:26;;;;;;;17.23;9.93;;;;;;;;;;5055901;28;20410;-82
2023/04/08 05:41:06;;;;;;;15.30;9.27;;;;;;;;;;5055788;28;20470;-83
2023/04/08 05:43:32;;;;;;;18.23;9.75;;;;;;;;;;5037889;28;20318;-81
2023/04/08 05:45:58;;;;;;;15.73;9.93;;;;;;;;;;5037513;28;20646;-82
2023/04/08 05:48:28;;;;;;;14.33;9.23;;;;;;;;;;5055795;28;20506;-82
2023/04/08 05:50:55;;;;;;;18.93;10.93;;;;;;;;;;5054151;28;20915;-85
2023/04/08 05:53:21;;;;;;;18.20;9.73;;;;;;;;;;5054907;28;20416;-85
2023/04/08 05:55:48;;;;;;;15.40;9.70;;;;;;;;;;5055576;28;20501;-84
2023/04/08 05:58:14;;;;;;;17.73;9.40;;;;;;;;;;5054769;28;20416;-84
2023/04/08 06:00:40;;;;;;;20.40;9.83;;;;;;;;;;5055222;28;20473;-84
2023/04/08 06:03:08;;;;;;;13.13;7.90;;;;;;;;;;5037682;28;20538;-84
2023/04/08 06:05:34;;;;;;;18.10;8.17;;;;;;;;;;5055341;28;20826;-85
2023/04/08 06:08:01;;;;;;;12.00;7.67;;;;;;;;;;5055094;28;20466;-85
2023/04/08 06:10:27;;;;;;;15.97;8.40;;;;;;;;;;5055222;28;20427;-85
2023/04/08 06:12:53;;;;;;;14.50;6.63;;;;;;;;;;5055291;28;20413;-85
2023/04/08 06:15:31;;;;;;;14.17;8.27;;;;;;;;;;5054851;28;20761;-84
2023/04/08 06:18:00;;;;;;;9.80;6.50;;;;;;;;;;5054175;28;20412;-85
2023/04/08 06:20:27;;;;;;;12.43;7.67;;;;;;;;;;5055012;28;21005;-83
2023/04/08 06:22:53;;;;;;;12.77;7.87;;;;;;;;;;5055089;28;20403;-82
2023/04/08 06:25:25;;;;;;;15.33;8.53;;;;;;;;;;5037399;28;20430;-83
2023/04/08 06:27:54;;;;;;;12.03;7.13;;;;;;;;;;5037207;28;20414;-84
2023/04/08 06:30:20;;;;;;;15.23;7.50;;;;;;;;;;5054564;28;20415;-87
2023/04/08 06:32:47;;;;;;;10.57;7.70;;;;;;;;;;5054840;28;20455;-81
2023/04/08 06:35:14;;;;;;;13.90;7.20;;;;;;;;;;5054852;28;20412;-80
2023/04/08 06:37:40;;;;;;;14.57;6.77;;;;;;;;;;5036796;28;20422;-81
2023/04/08 06:40:08;;;;;;;11.57;7.37;;;;;;;;;;5036832;28;20533;-81
2023/04/08 06:42:35;;;;;;;13.07;6.47;;;;;;;;;;5054646;28;20494;-81
2023/04/08 06:45:01;;;;;;;12.63;8.00;;;;;;;;;;5036370;28;20784;-82
2023/04/08 06:47:44;;;;;;;13.97;7.60;;;;;;;;;;5036906;28;20778;-82
2023/04/08 06:50:11;;;;;;;12.27;8.27;;;;;;;;;;5053812;28;20415;-82
2023/04/08 06:52:37;;;;;;;16.60;8.40;;;;;;;;;;5052019;28;20417;-82
2023/04/08 06:55:02;;;;;;;15.33;9.90;;;;;;;;;;5054466;28;20943;-79
2023/04/08 06:57:34;;;;;;;16.73;7.70;;;;;;;;;;5054401;28;20422;-83
2023/04/08 07:00:00;;;;;;;16.10;8.93;;;;;;;;;;5053722;28;20551;-83
2023/04/08 07:02:26;;;;;;;13.93;8.03;;;;;;;;;;5054282;28;20419;-84
2023/04/08 07:04:54;;;;;;;16.93;8.87;;;;;;;;;;5054182;28;20465;-81
2023/04/08 07:07:23;;;;;;;18.17;9.40;;;;;;;;;;5035647;28;20482;-80
2023/04/08 07:09:49;;;;;;;15.80;8.50;;;;;;;;;;5035453;28;20577;-80
2023/04/08 07:12:15;;;;;;;12.60;8.60;;;;;;;;;;5052208;28;20424;-80
2023/04/08 07:14:41;;;;;;;14.33;8.20;;;;;;;;;;5035923;28;21048;-82
2023/04/08 07:17:07;;;;;;;17.27;9.70;;;;;;;;;;5036164;28;20421;-84
2023/04/08 07:19:33;;;;;;;15.67;8.60;;;;;;;;;;5036197;28;20421;-82
2023/04/08 07:21:59;;;;;;;20.90;8.40;;;;;;;;;;5035954;28;20872;-82
2023/04/08 07:24:25;;;;;;;13.97;8.47;;;;;;;;;;5053894;28;20409;-80
2023/04/08 07:26:51;;;;;;;12.70;7.20;;;;;;;;;;5035903;28;20941;-83
2023/04/08 07:29:17;;;;;;;12.93;8.63;;;;;;;;;;5053644;28;20406;-83
2023/04/08 07:31:43;;;;;;;16.07;8.57;;;;;;;;;;5053580;28;20507;-83
2023/04/08 07:34:09;;;;;;;16.73;9.87;;;;;;;;;;5069105;28;20443;-84
2023/04/08 07:36:35;;;;;;;15.20;9.07;;;;;;;;;;5035574;28;20473;-84
2023/04/08 07:39:02;;;;;;;16.30;9.03;;;;;;;;;;5053456;28;20404;-84
2023/04/08 07:41:28;;;;;;;14.97;8.93;;;;;;;;;;5053129;28;20472;-80
2023/04/08 07:43:54;;;;;;;14.30;8.57;;;;;;;;;;5035548;28;20421;-84
2023/04/08 07:46:20;;;;;;;20.03;8.70;;;;;;;;;;5053116;28;20515;-83
2023/04/08 07:48:46;;;;;;;15.93;8.93;;;;;;;;;;5053425;28;20986;-83
2023/04/08 07:51:13;;;;;;;12.40;8.20;;;;;;;;;;5053413;28;20511;-83
2023/04/08 07:53:39;;;;;;;21.40;9.90;;;;;;;;;;5053291;28;20919;-83
2023/04/08 07:56:17;;;;;;;15.30;8.60;;;;;;;;;;5053286;28;20415;-84
2023/04/08 07:58:42;;;;;;;14.07;8.97;;;;;;;;;;5053394;28;20485;-82
2023/04/08 08:01:18;;;;;;;20.43;8.87;;;;;;;;;;5052788;28;20630;-83
2023/04/08 08:03:46;;;;;;;17.30;7.87;;;;;;;;;;5053139;28;20880;-79
2023/04/08 08:06:12;;;;;;;13.33;8.50;;;;;;;;;;5053135;28;20410;-83
2023/04/08 08:08:38;;;;;;;15.97;9.33;;;;;;;;;;5052926;28;20463;-81
2023/04/08 08:11:03;;;;;;;13.40;8.67;;;;;;;;;;5053080;28;20791;-80
2023/04/08 08:13:30;;;;;;;12.80;7.57;;;;;;;;;;5053009;28;20441;-81
2023/04/08 08:15:56;;;;;;;17.87;9.43;;;;;;;;;;5052668;28;20484;-81
2023/04/08 08:18:21;;;;;;;15.70;8.37;;;;;;;;;;5053069;28;20848;-79
2023/04/08 08:20:47;;;;;;;12.77;7.90;;;;;;;;;;5052665;28;20550;-82
2023/04/08 08:23:13;;;;;;;11.50;7.50;;;;;;;;;;5052947;28;20468;-83
2023/04/08 08:25:39;;;;;;;15.37;8.40;;;;;;;;;;5035306;28;20915;-79
2023/04/08 08:28:05;;;;;;;14.33;7.87;;;;;;;;;;5052886;28;20411;-83
2023/04/08 08:30:31;;;;;;;15.57;8.73;;;;;;;;;;5052603;28;20773;-80
2023/04/08 08:32:58;;;;;;;16.63;7.40;;;;;;;;;;5052649;28;20408;-82
2023/04/08 08:35:24;;;;;;;15.40;9.20;;;;;;;;;;5052614;28;20446;-83
2023/04/08 08:37:50;;;;;;;12.83;7.17;;;;;;;;;;5052464;28;20411;-79
2023/04/08 08:40:16;;;;;;;14.20;8.17;;;;;;;;;;5034903;28;20484;-80
2023/04/08 08:42:50;;;;;;;15.37;8.20;;;;;;;;;;5052822;28;20743;-79
2023/04/08 08:45:16;;;;;;;13.50;7.10;;;;;;;;;;5051892;28;20486;-83
2023/04/08 08:47:41;;;;;;;14.90;8.40;;;;;;;;;;5052289;28;20444;-82
2023/04/08 08:50:07;;;;;;;14.10;7.50;;;;;;;;;;5051704;28;20430;-83
2023/04/08 08:52:33;;;;;;;12.83;8.07;;;;;;;;;;5052642;28;20418;-80
2023/04/08 08:55:00;;;;;;;12.30;7.17;;;;;;;;;;5034827;28;20982;-80
2023/04/08 08:57:26;;;;;;;10.43;7.43;;;;;;;;;;5052612;28;20413;-80
2023/04/08 08:59:51;;;;;;;14.10;8.33;;;;;;;;;;5052156;28;20809;-81
2023/04/08 09:02:28;;;;;;;11.77;7.33;;;;;;;;;;5052384;28;20416;-81
2023/04/08 09:04:58;;;;;;;11.13;6.90;;;;;;;;;;5034756;28;20447;-82
2023/04/08 09:07:25;;;;;;;14.30;8.20;;;;;;;;;;5052192;28;20971;-81
2023/04/08 09:09:52;;;;;;;12.70;6.67;;;;;;;;;;5052392;28;20847;-83
2023/04/08 09:12:18;;;;;;;13.70;7.30;;;;;;;;;;4994405;28;20444;-83
2023/04/08 09:14:44;;;;;;;11.60;7.40;;;;;;;;;;5034194;28;20423;-81
2023/04/08 09:17:12;;;;;;;13.93;6.73;;;;;;;;;;5034528;28;20408;-83
2023/04/08 09:19:38;;;;;;;14.03;8.33;;;;;;;;;;5052266;28;20453;-83
2023/04/08 09:22:08;;;;;;;14.37;6.50;;;;;;;;;;5052190;28;20919;-83
2023/04/08 09:24:35;;;;;;;10.77;7.13;;;;;;;;;;5034172;28;20429;-80
2023/04/08 09:27:02;;;;;;;11.40;7.90;;;;;;;;;;5034215;28;20427;-80
2023/04/08 09:29:27;;;;;;;10.30;7.57;;;;;;;;;;5052028;28;20759;-82
2023/04/08 09:31:57;;;;;;;10.53;5.80;;;;;;;;;;5052795;28;20415;-81
2023/04/08 09:34:24;;;;;;;11.97;7.00;;;;;;;;;;5036932;28;20414;-80
2023/04/08 09:36:50;;;;;;;12.20;8.00;;;;;;;;;;5055075;28;20423;-79
2023/04/08 09:39:16;;;;;;;12.27;6.97;;;;;;;;;;5055803;28;20826;-79
2023/04/08 09:41:42;;;;;;;11.27;6.90;;;;;;;;;;5055890;28;20471;-81
2023/04/08 09:44:09;;;;;;;10.63;7.23;;;;;;;;;;5037806;28;20491;-84
2023/04/08 09:46:36;;;;;;;13.13;7.67;;;;;;;;;;5055894;28;20421;-82
2023/04/08 09:49:06;;;;;;;13.07;6.03;;;;;;;;;;5054955;28;20422;-80
2023/04/08 09:51:35;;;;;;;12.47;6.63;;;;;;;;;;5055228;28;20419;-80
2023/04/08 09:54:03;;;;;;;11.00;7.00;;;;;;;;;;5055660;28;20400;-78
2023/04/08 09:56:30;;;;;;;14.17;8.17;;;;;;;;;;5054595;28;20897;-78
2023/04/08 09:59:02;;;;;;;12.57;7.47;;;;;;;;;;5054445;28;20423;-78
2023/04/08 10:01:32;;;;;;;18.07;9.17;;;;;;;;;;5055372;28;20567;-79
2023/04/08 10:03:59;;;;;;;17.87;8.63;;;;;;;;;;5055481;28;20470;-78
2023/04/08 10:06:27;;;;;;;14.97;10.00;;;;;;;;;;5037165;28;20447;-78
2023/04/08 10:08:55;;;;;;;12.17;8.70;;;;;;;;;;5054727;28;20455;-80
2023/04/08 10:11:23;;;;;;;11.90;7.97;;;;;;;;;;5011504;28;20887;-83
2023/04/08 10:13:50;;;;;;;14.40;8.50;;;;;;;;;;5030420;28;20523;-78
2023/04/08 10:16:16;;;;;;;10.40;7.63;;;;;;;;;;5053559;28;20405;-83
2023/04/08 10:18:43;;;;;;;10.50;7.20;;;;;;;;;;5053697;28;20453;-81
2023/04/08 10:21:38;;;;;;;13.70;9.20;;;;;;;;;;5030201;28;20861;-83
2023/04/08 10:29:45;;;;;;;12.13;7.50;;;;;;;;;;5050347;28;20439;-79
2023/04/08 10:32:28;;;;;;;12.33;8.03;;;;;;;;;;5053671;28;20498;-83
2023/04/08 10:34:54;;;;;;;11.70;7.47;;;;;;;;;;5035577;28;20426;-79
2023/04/08 10:37:19;;;;;;;14.47;8.50;;;;;;;;;;5035569;28;20425;-83
2023/04/08 10:39:50;;;;;;;15.50;9.00;;;;;;;;;;5035411;28;20808;-81
2023/04/08 10:42:16;;;;;;;15.47;9.40;;;;;;;;;;5060204;28;20486;-80
2023/04/08 10:44:45;;;;;;;11.37;8.37;;;;;;;;;;5053255;28;20405;-82
2023/04/08 10:47:11;;;;;;;13.17;8.53;;;;;;;;;;5053343;28;20420;-79
2023/04/08 10:49:41;;;;;;;13.10;7.50;;;;;;;;;;5053156;28;20969;-83
2023/04/08 10:52:08;;;;;;;13.63;8.07;;;;;;;;;;5050680;28;20420;-83
2023/04/08 10:54:34;;;;;;;16.13;8.57;;;;;;;;;;5053154;28;20548;-83
2023/04/08 10:57:00;;;;;;;15.00;8.57;;;;;;;;;;5053008;28;20406;-82
2023/04/08 10:59:31;;;;;;;11.53;8.77;;;;;;;;;;5059663;28;20416;-83
2023/04/08 11:01:59;;;;;;;15.33;9.03;;;;;;;;;;5052864;28;20405;-83
2023/04/08 11:04:26;;;;;;;13.27;8.87;;;;;;;;;;5049918;28;20413;-81
2023/04/08 11:06:52;;;;;;;13.47;9.00;;;;;;;;;;5059874;28;20428;-82
2023/04/08 11:09:18;;;;;;;9.70;6.60;;;;;;;;;;5035257;28;20515;-83
2023/04/08 11:11:45;;;;;;;11.27;8.27;;;;;;;;;;5036153;28;20448;-82
2023/04/08 11:14:11;;;;;;;12.13;8.53;;;;;;;;;;5053474;28;20418;-79
2023/04/08 11:16:38;;;;;;;12.70;9.23;;;;;;;;;;5013860;28;20445;-78
2023/04/08 11:19:04;;;;;;;15.77;8.30;;;;;;;;;;5053755;28;20404;-82
2023/04/08 11:21:31;;;;;;;12.87;8.47;;;;;;;;;;5047200;28;21106;-79
2023/04/08 11:23:58;;;;;;;14.50;9.37;;;;;;;;;;5046196;28;20423;-82
2023/04/08 11:26:25;;;;;;;14.10;8.93;;;;;;;;;;5035808;28;20531;-79
2023/04/08 11:28:51;;;;;;;13.17;8.73;;;;;;;;;;5035112;28;20475;-84
2023/04/08 11:31:18;;;;;;;15.00;10.30;;;;;;;;;;5035342;28;20482;-81
2023/04/08 11:33:45;;;;;;;12.23;8.83;;;;;;;;;;5053548;28;20398;-84
2023/04/08 11:36:11;;;;;;;12.60;8.87;;;;;;;;;;5035632;28;20827;-83
2023/04/08 11:38:41;;;;;;;17.50;9.93;;;;;;;;;;5035505;28;20951;-84
2023/04/08 11:41:07;;;;;;;14.07;9.30;;;;;;;;;;5053735;28;20825;-84
2023/04/08 11:43:35;;;;;;;15.40;9.77;;;;;;;;;;5035224;28;20435;-83
2023/04/08 11:46:07;;;;;;;15.30;9.50;;;;;;;;;;5053298;28;20408;-84
2023/04/08 11:48:34;;;;;;;17.50;11.07;;;;;;;;;;5053243;28;20431;-83
2023/04/08 11:51:03;;;;;;;15.50;9.40;;;;;;;;;;5035231;28;20421;-84
2023/04/08 11:53:29;;;;;;;18.93;10.40;;;;;;;;;;5053168;28;20486;-84
2023/04/08 11:56:02;;;;;;;15.97;10.10;;;;;;;;;;5052657;28;20425;-83
2023/04/08 11:58:28;;;;;;;14.50;9.83;;;;;;;;;;5052954;28;20428;-84
2023/04/08 12:00:54;;;;;;;17.17;10.53;;;;;;;;;;5052995;28;20591;-83
2023/04/08 12:03:20;;;;;;;19.80;10.80;;;;;;;;;;5034978;28;20520;-81
2023/04/08 12:05:46;;;;;;;14.33;10.30;;;;;;;;;;5035366;28;20534;-82
2023/04/08 12:08:13;;;;;;;14.07;9.20;;;;;;;;;;5034766;28;20422;-83
2023/04/08 12:10:39;;;;;;;16.40;10.17;;;;;;;;;;5034955;28;20484;-83
2023/04/08 12:13:05;;;;;;;12.10;8.00;;;;;;;;;;5034773;28;20434;-83
2023/04/08 12:15:31;;;;;;;15.03;9.83;;;;;;;;;;5034731;28;20467;-84
2023/04/08 12:18:00;;;;;;;14.40;10.07;;;;;;;;;;5011304;28;20463;-83
2023/04/08 12:20:29;;;;;;;17.40;9.77;;;;;;;;;;5053572;28;20478;-84
2023/04/08 12:22:55;;;;;;;14.07;10.53;;;;;;;;;;5038876;28;20422;-84
2023/04/08 12:25:21;;;;;;;12.83;8.93;;;;;;;;;;5032619;28;20425;-84
2023/04/08 12:27:47;;;;;;;13.20;10.17;;;;;;;;;;5031815;28;20176;-84
2023/04/08 12:30:13;;;;;;;12.43;9.07;;;;;;;;;;5052424;28;20426;-83
2023/04/08 12:32:40;;;;;;;11.97;9.60;;;;;;;;;;5051838;28;20407;-80
2023/04/08 12:35:06;;;;;;;17.57;10.87;;;;;;;;;;5052002;28;20421;-82
2023/04/08 12:37:32;;;;;;;16.47;10.87;;;;;;;;;;5052717;28;20428;-81
2023/04/08 12:39:58;;;;;;;14.97;10.13;;;;;;;;;;5052431;28;20464;-84
2023/04/08 12:42:24;;;;;;;15.87;9.93;;;;;;;;;;5052310;28;20891;-84
2023/04/08 12:44:50;;;;;;;17.87;11.10;;;;;;;;;;5034628;28;20186;-83
2023/04/08 12:47:16;;;;;;;16.60;11.87;;;;;;;;;;5034646;28;20768;-84
2023/04/08 12:49:42;;;;;;;17.47;12.27;;;;;;;;;;5052620;28;20170;-83
2023/04/08 12:52:08;;;;;;;18.90;12.70;;;;;;;;;;5052514;28;20987;-85
2023/04/08 12:54:34;;;;;;;18.80;12.00;;;;;;;;;;5052355;28;20460;-84
2023/04/08 12:57:00;;;;;;;15.33;11.93;;;;;;;;;;5051632;28;20404;-83
2023/04/08 12:59:26;;;;;;;17.07;11.60;;;;;;;;;;5052433;28;20818;-84
2023/04/08 13:01:52;;;;;;;18.13;12.00;;;;;;;;;;5032032;28;20575;-84
2023/04/08 13:04:18;;;;;;;17.43;10.60;;;;;;;;;;5041284;28;20417;-85
2023/04/08 13:06:47;;;;;;;13.53;9.03;;;;;;;;;;5052578;28;20237;-85
2023/04/08 13:09:17;;;;;;;18.63;11.50;;;;;;;;;;5056482;28;20482;-84
2023/04/08 13:11:43;;;;;;;19.43;12.67;;;;;;;;;;5056003;28;20416;-79
2023/04/08 13:14:09;;;;;;;17.10;11.37;;;;;;;;;;5037301;28;20407;-81
2023/04/08 13:16:35;;;;;;;19.53;12.83;;;;;;;;;;5055491;28;20421;-82
2023/04/08 13:19:02;;;;;;;17.90;11.40;;;;;;;;;;5055100;28;20416;-83
2023/04/08 13:21:28;;;;;;;18.63;11.37;;;;;;;;;;5048500;28;20919;-86
2023/04/08 13:23:54;;;;;;;16.27;11.63;;;;;;;;;;5035832;28;20442;-80
2023/04/08 13:26:20;;;;;;;18.70;11.60;;;;;;;;;;5042129;28;20526;-81
2023/04/08 13:28:46;;;;;;;18.67;12.30;;;;;;;;;;5037402;28;20468;-78
2023/04/08 13:31:12;;;;;;;15.00;10.60;;;;;;;;;;5055645;28;20757;-84
2023/04/08 13:33:38;;;;;;;14.80;8.97;;;;;;;;;;5055537;28;20436;-77
2023/04/08 13:36:04;;;;;;;14.03;9.20;;;;;;;;;;5037957;28;20893;-78
2023/04/08 13:38:30;;;;;;;15.43;9.73;;;;;;;;;;5037865;28;20421;-87
2023/04/08 13:40:56;;;;;;;15.73;10.47;;;;;;;;;;5056306;28;20563;-78
2023/04/08 13:43:22;;;;;;;13.30;10.73;;;;;;;;;;5055164;28;20401;-78
2023/04/08 13:45:48;;;;;;;19.23;12.33;;;;;;;;;;5055276;28;20425;-88
2023/04/08 13:48:14;;;;;;;17.83;12.57;;;;;;;;;;5038407;28;20468;-79
2023/04/08 13:50:41;;;;;;;20.23;13.57;;;;;;;;;;5056161;28;20470;-87
2023/04/08 13:53:07;;;;;;;21.67;12.60;;;;;;;;;;5056341;28;20440;-84
2023/04/08 13:55:32;;;;;;;20.67;13.20;;;;;;;;;;5055824;28;20432;-83
2023/04/08 13:58:02;;;;;;;20.00;12.33;;;;;;;;;;5037358;28;20433;-86
2023/04/08 14:00:28;;;;;;;17.27;11.60;;;;;;;;;;5037984;28;20293;-81
2023/04/08 14:02:54;;;;;;;18.60;12.50;;;;;;;;;;5038143;28;20439;-90
2023/04/08 14:05:20;;;;;;;20.60;13.90;;;;;;;;;;5036927;28;20260;-79
2023/04/08 14:07:45;;;;;;;17.00;12.73;;;;;;;;;;5035354;28;20222;-85
2023/04/08 14:10:13;;;;;;;20.00;12.97;;;;;;;;;;5071477;28;20510;-78
2023/04/08 14:12:39;;;;;;;20.03;12.93;;;;;;;;;;5055750;28;20465;-80
2023/04/08 14:15:05;;;;;;;19.00;12.77;;;;;;;;;;5055990;28;20416;-80
2023/04/08 14:17:31;;;;;;;18.80;11.83;;;;;;;;;;5055232;28;20501;-84
2023/04/08 14:19:59;;;;;;;20.07;13.60;;;;;;;;;;5055636;28;20511;-90
2023/04/08 14:22:25;;;;;;;17.40;11.07;;;;;;;;;;5055756;28;20423;-89
2023/04/08 14:24:51;;;;;;;19.90;13.07;;;;;;;;;;5056290;28;20832;-80
2023/04/08 14:27:17;;;;;;;17.30;12.17;;;;;;;;;;5070397;28;20174;-79
2023/04/08 14:29:43;;;;;;;17.60;12.47;;;;;;;;;;5070557;28;20577;-86
2023/04/08 14:32:09;;;;;;;16.90;13.30;;;;;;;;;;5055652;28;20425;-87
2023/04/08 14:34:36;;;;;;;20.20;13.57;;;;;;;;;;5055746;28;20408;-81
2023/04/08 14:37:02;;;;;;;22.00;12.87;;;;;;;;;;5055782;28;20426;-89
2023/04/08 14:39:28;;;;;;;13.63;11.03;;;;;;;;;;5064242;28;20455;-82
2023/04/08 14:41:56;;;;;;;24.50;15.63;;;;;;;;;;5055326;28;20473;-90